Latest Coastal Weather Observations for Wynyard

IDV60701

Issued at 11:11 pm EDT Tuesday 6 December 2016 (issued every 10 minutes, with the page automatically refreshed every 10 minutes)

About coastal observations | Map of coastal stations | Coastal observations for VIC | Marine services | Other Formats
Station Details ID: 091107 Name: WYNYARD AIRPORT Lat: -41.00 Lon: 145.73 Height: 12.0 m
Data from the previous 72 hours. | See also: Recent months at Wynyard
Date/Time
EDT
Temp
°C
Wind Pressure Rain since
9am
mm
Weather Cloud Vis
km
Sea
Height
m
Swell
Dir  Spd
kts
Gust
kts
hPa Trend Height
m
Period
s
Dir
06/11:00pm 12.2 W 4 5 1013.6 - 0.0 - Cloudy 10 - - - -
06/10:30pm 12.0 W 4 5 1013.6 - 0.0 - Partly cloudy 10 - - - -
06/10:00pm 11.5 W 7 8 1013.6 - 0.0 - Partly cloudy 10 - - - -
06/09:30pm 12.5 WNW 7 8 1013.3 - 0.0 - Partly cloudy 10 - - - -
06/09:00pm 12.5 W 7 9 1012.8 - 0.0 - - 10 - - - -
06/08:30pm 13.4 WSW 8 10 1012.7 - 0.0 - - 10 - - - -
06/08:00pm 15.2 WSW 10 15 1012.4 - 0.0 - - 10 - - - -
06/07:30pm 16.0 WSW 14 20 1011.8 - 0.0 - Partly cloudy 10 - - - -
06/07:00pm 17.0 WSW 12 17 1011.4 - 0.0 - Partly cloudy 10 - - - -
06/06:30pm 17.5 W 15 20 1011.1 - 0.0 - Partly cloudy 10 - - - -
06/06:00pm 17.8 WSW 13 16 1010.8 - 0.0 - Cloudy 10 - - - -
06/05:30pm 16.7 WSW 13 18 1010.7 - 0.0 - Cloudy 10 - - - -
06/05:00pm 17.6 WSW 13 20 1010.7 - 0.0 - Partly cloudy 10 - - - -
06/04:30pm 18.0 WSW 17 24 1010.5 - 0.0 - Partly cloudy 10 - - - -
06/04:00pm 18.1 WSW 15 21 1010.4 - 0.0 - Partly cloudy 10 - - - -
06/03:30pm 17.5 WSW 15 21 1010.3 - 0.0 - Cloudy 10 - - - -
06/03:00pm 17.6 W 16 21 1010.3 - 0.0 - Mostly cloudy 10 - - - -
06/02:30pm 18.4 W 15 21 1010.4 - 0.0 - Partly cloudy 10 - - - -
06/02:21pm 17.5 WSW 15 25 1010.6 - 0.0 - Partly cloudy 10 - - - -
06/02:00pm 17.6 W 15 22 1010.8 - 0.0 - Partly cloudy 10 - - - -
06/01:30pm 17.2 WSW 15 22 1011.0 - 0.0 - Cloudy 10 - - - -
06/01:19pm 15.8 WSW 19 25 1011.0 - 0.0 - Cloudy 10 - - - -
06/01:00pm 17.0 W 19 23 1010.9 - 0.0 - Cloudy 10 - - - -
06/12:30pm 16.9 W 15 22 1010.8 - 0.0 - Cloudy 10 - - - -
06/12:00pm 17.8 W 16 21 1011.0 - 0.0 - Mostly cloudy 10 - - - -
06/11:30am 16.0 W 15 19 1011.2 - 0.0 - Cloudy 10 - - - -
06/11:00am 16.4 W 11 18 1011.2 - 0.0 - Partly cloudy 10 - - - -
06/10:30am 15.5 SW 13 20 1011.2 - 0.0 - Cloudy 10 - - - -
06/10:00am 15.1 SW 12 16 1011.1 - 0.0 - Partly cloudy 10 - - - -
06/09:30am 14.1 WSW 10 16 1011.4 - 0.0 - Partly cloudy 10 - - - -
06/09:00am 13.4 SW 12 16 1011.5 - 0.0 - - 10 - - - -
06/08:30am 13.2 W 6 8 1011.3 - 0.0 - - 10 - - - -
06/08:00am 11.9 W 9 12 1011.5 - 0.0 - - 10 - - - -
06/07:30am 10.6 WSW 7 9 1011.3 - 0.0 - - 10 - - - -
06/07:00am 10.3 W 7 9 1011.4 - 0.0 - - 10 - - - -
06/06:30am 9.2 W 7 9 1011.3 - 0.0 - - 10 - - - -
06/06:00am 8.8 WSW 9 12 1011.0 - 0.0 - - 10 - - - -
06/05:30am 8.4 WSW 9 11 1011.0 - 0.0 - Partly cloudy 10 - - - -
06/05:00am 8.2 W 8 11 1011.0 - 0.0 - Partly cloudy 10 - - - -
06/04:30am 7.7 W 7 9 1010.3 - 0.0 - - 10 - - - -
06/04:00am 8.2 W 7 9 1009.9 - 0.0 - - 10 - - - -
06/03:30am 8.6 WNW 8 11 1010.4 - 0.0 - - 10 - - - -
06/03:00am 8.3 WSW 6 8 1010.2 - 0.0 - - 10 - - - -
06/02:30am 8.0 W 7 10 1010.8 - 0.0 - - 10 - - - -
06/02:00am 8.0 WNW 9 11 1010.7 - 0.0 - - 10 - - - -
06/01:30am 7.7 W 7 8 1010.4 - 0.0 - - 10 - - - -
06/01:00am 8.2 W 8 11 1010.8 - 0.0 - - 10 - - - -
06/12:30am 8.9 W 10 12 1010.9 - 0.0 - - 10 - - - -
06/12:00am 9.4 W 11 14 1011.1 - 0.0 - Partly cloudy 10 - - - -
 
Date/Time
EDT
Temp
°C
Wind Pressure Rain since
9am
mm
Weather Cloud Vis
km
Sea
Height
m
Swell
Dir  Spd
kts
Gust
kts
hPa Trend Height
m
Period
s
Dir
05/11:30pm 9.4 W 10 13 1011.5 - 0.0 - - 10 - - - -
05/11:00pm 9.7 W 9 11 1012.0 - 0.0 - - 10 - - - -
05/10:30pm 10.5 W 11 14 1012.3 - 0.0 - - 10 - - - -
05/10:00pm 10.6 W 9 12 1012.3 - 0.0 - - 10 - - - -
05/09:30pm 11.0 W 10 11 1011.6 - 0.0 - - 10 - - - -
05/09:00pm 11.5 W 8 10 1011.3 - 0.0 - - 10 - - - -
05/08:30pm 13.1 WSW 9 12 1011.3 - 0.0 - - 10 - - - -
05/08:00pm 14.6 SSW 12 17 1011.4 - 0.0 - - 10 - - - -
05/07:30pm 15.7 SW 12 19 1011.0 - 0.0 - - 10 - - - -
05/07:00pm 16.6 SW 12 19 1010.5 - 0.0 - - 10 - - - -
05/06:30pm 17.2 WSW 14 20 1009.5 - 0.0 - - 10 - - - -
05/06:00pm 17.9 SSW 11 18 1009.3 - 0.0 - Mostly clear 10 - - - -
05/05:30pm 18.8 SW 12 19 1009.7 - 0.0 - - 10 - - - -
05/05:00pm 19.1 SW 13 19 1009.3 - 0.0 - - 10 - - - -
05/04:30pm 19.2 WSW 18 25 1008.9 - 0.0 - - 10 - - - -
05/04:19pm 19.0 WSW 16 26 1008.7 - 0.0 - - 10 - - - -
05/04:00pm 20.0 WSW 14 23 1008.5 - 0.0 - - 10 - - - -
05/03:30pm 19.3 WSW 16 24 1008.4 - 0.0 - - 10 - - - -
05/03:00pm 19.4 WSW 18 28 1008.6 - 0.0 - Mostly clear 10 - - - -
05/02:53pm 19.0 SW 17 28 1008.6 - 0.0 - Partly cloudy 10 - - - -
05/02:30pm 19.4 W 18 25 1008.5 - 0.0 - Partly cloudy 10 - - - -
05/02:07pm 18.9 WSW 20 30 1008.4 - 0.0 - Partly cloudy 10 - - - -
05/02:00pm 18.8 W 20 30 1008.3 - 0.0 - Partly cloudy 10 - - - -
05/01:59pm 19.1 W 19 30 1008.2 - 0.0 - Partly cloudy 10 - - - -
05/01:30pm 18.8 W 15 24 1008.1 - 0.0 - Partly cloudy 10 - - - -
05/01:00pm 18.8 WSW 15 23 1007.7 - 0.0 - Partly cloudy 10 - - - -
05/12:41pm 19.0 W 16 26 1007.6 - 0.0 - Partly cloudy 10 - - - -
05/12:30pm 18.1 WSW 16 22 1007.7 - 0.0 - Partly cloudy 10 - - - -
05/12:00pm 18.5 W 16 23 1007.9 - 0.0 - Mostly cloudy 10 - - - -
05/11:30am 17.8 W 16 24 1007.7 - 0.0 - Partly cloudy 10 - - - -
05/11:00am 17.4 WSW 16 22 1007.5 - 0.0 - Partly cloudy 10 - - - -
05/10:30am 17.1 WSW 16 24 1007.1 - 0.0 - Partly cloudy 10 - - - -
05/10:12am 17.1 WSW 17 27 1007.0 - 0.0 - Partly cloudy 10 - - - -
05/10:00am 16.0 WSW 17 25 1007.0 - 0.0 - Cloudy 10 - - - -
05/09:30am 15.4 W 17 27 1006.8 - 0.0 - Partly cloudy 10 - - - -
05/09:00am 15.5 W 19 29 1006.5 - 12.6 - Mostly cloudy 10 - - - -
05/08:45am 15.3 W 15 25 1006.3 - 12.6 - Partly cloudy 10 - - - -
05/08:30am 15.8 W 13 18 1006.0 - 12.6 - Partly cloudy 10 - - - -
05/08:00am 15.2 W 10 17 1005.8 - 12.6 - Partly cloudy 10 - - - -
05/07:30am 14.2 W 13 17 1005.5 - 12.6 - Partly cloudy 10 - - - -
05/07:00am 13.5 W 13 18 1005.0 - 12.6 - Partly cloudy 10 - - - -
05/06:46am 13.3 W 15 25 1004.6 - 12.6 - - 10 - - - -
05/06:30am 13.1 W 13 17 1004.1 - 12.6 - - 10 - - - -
05/06:09am 13.2 WSW 17 27 1003.2 - 12.6 - - 10 - - - -
05/06:00am 13.3 WSW 17 24 1003.0 - 12.6 - - 10 - - - -
05/05:30am 13.8 W 14 19 1001.9 - 12.6 - - 10 - - - -
05/05:00am 14.6 WSW 13 19 1001.1 - 12.6 - Partly cloudy 10 - - - -
05/04:30am 15.9 W 14 20 1000.4 - 12.6 - Partly cloudy 10 - - - -
05/04:11am 16.2 W 16 29 1000.0 - 12.6 - Partly cloudy 10 - - - -
05/04:00am 16.7 W 16 23 999.6 - 12.6 - Partly cloudy 10 - - - -
05/03:46am 16.9 W 16 26 999.4 - 12.6 - Partly cloudy 10 - - - -
05/03:43am 17.0 W 17 27 999.5 - 12.6 - Partly cloudy 10 - - - -
05/03:31am 17.1 WNW 17 26 999.3 - 12.6 - Partly cloudy 10 - - - -
05/03:30am 17.1 WNW 16 26 999.3 - 12.6 - Partly cloudy 10 - - - -
05/03:00am 16.6 NW 10 13 999.3 - 12.6 Rain Cloudy 4 - - - -
05/02:30am 15.3 CALM 0 4 999.7 - 11.6 - Partly cloudy 0.7 - - - -
05/02:00am 15.3 N 1 4 1000.2 - 5.4 - Partly cloudy 3 - - - -
05/01:45am 15.2 N 4 6 1000.6 - 3.2 - Cloudy 5 - - - -
05/01:30am 15.3 NE 6 8 999.6 - 2.4 - Partly cloudy 7 - - - -
05/01:03am 15.4 NE 6 9 1000.1 - 2.4 - Partly cloudy 8 - - - -
05/01:00am 15.4 NE 5 7 1000.1 - 2.4 - Partly cloudy 9 - - - -
05/12:30am 15.5 E 7 12 1000.4 - 2.2 - Partly cloudy 8 - - - -
05/12:00am 15.5 E 7 10 1001.7 - 2.2 - Cloudy 10 - - - -
 
Date/Time
EDT
Temp
°C
Wind Pressure Rain since
9am
mm
Weather Cloud Vis
km
Sea
Height
m
Swell
Dir  Spd
kts
Gust
kts
hPa Trend Height
m
Period
s
Dir
04/11:30pm 15.5 E 8 12 1002.0 - 2.2 - Cloudy 10 - - - -
04/11:00pm 15.6 ESE 8 11 1002.8 - 2.2 - Partly cloudy 10 - - - -
04/10:46pm 15.7 ESE 8 10 1003.4 - 2.2 - Partly cloudy 8 - - - -
04/10:33pm 15.7 E 6 8 1004.0 - 2.2 - Partly cloudy 6 - - - -
04/10:30pm 15.7 E 6 8 1004.2 - 2.0 - Partly cloudy 6 - - - -
04/10:19pm 15.8 E 6 9 1004.5 - 2.0 - Partly cloudy 8 - - - -
04/10:07pm 15.8 E 7 10 1004.7 - 1.8 - Partly cloudy 5 - - - -
04/10:00pm 15.9 ESE 7 10 1004.7 - 1.8 - Partly cloudy 7 - - - -
04/09:30pm 15.8 ESE 9 13 1004.7 - 1.2 - Partly cloudy 10 - - - -
04/09:15pm 15.8 ESE 8 12 1004.9 - 1.2 - Partly cloudy 10 - - - -
04/09:05pm 15.8 E 7 10 1005.3 - 0.8 - Partly cloudy 5 - - - -
04/09:00pm 15.8 E 6 9 1005.4 - 0.8 Rain Cloudy 5 - - - -
04/08:57pm 15.8 E 6 12 1005.6 - 0.8 - Partly cloudy 5 - - - -
04/08:55pm 15.9 E 7 13 1005.7 - 0.6 - Partly cloudy 8 - - - -
04/08:30pm 16.1 E 9 13 1005.0 - 0.0 - Partly cloudy 10 - - - -
04/08:00pm 17.0 ESE 11 15 1004.7 - 0.0 - Partly cloudy 10 - - - -
04/07:36pm 17.1 ESE 11 15 1005.0 - 0.0 - Partly cloudy 10 - - - -
04/07:30pm 17.1 ESE 10 13 1005.0 - 0.0 - Partly cloudy 10 - - - -
04/07:00pm 17.2 E 11 17 1005.5 - 0.0 - Partly cloudy 10 - - - -
04/06:30pm 17.2 ESE 13 17 1006.0 - 0.0 - Cloudy 10 - - - -
04/06:00pm 16.9 ESE 11 15 1006.4 - 0.0 - Cloudy 10 - - - -
04/05:30pm 17.0 E 9 14 1007.0 - 0.0 - Cloudy 10 - - - -
04/05:00pm 16.5 ESE 10 14 1008.0 - 0.0 - Cloudy 10 - - - -
04/04:30pm 16.5 ESE 11 15 1008.2 - 0.0 - Cloudy 10 - - - -
04/04:00pm 16.4 ESE 10 14 1008.5 - 0.0 - Cloudy 10 - - - -
04/03:30pm 16.4 E 10 15 1008.9 - 0.0 - Cloudy 10 - - - -
04/03:00pm 16.7 ESE 12 17 1009.1 - 0.0 - Cloudy 10 - - - -
04/02:30pm 16.6 E 11 15 1009.7 - 0.0 - Cloudy 10 - - - -
04/02:00pm 16.3 E 12 17 1010.1 - 0.0 - Cloudy 10 - - - -
04/01:30pm 16.5 E 12 16 1010.5 - 0.0 - Cloudy 10 - - - -
04/01:16pm 16.1 E 12 17 1010.7 - 0.0 - Cloudy 10 - - - -
04/01:00pm 16.1 E 13 19 1010.9 - 0.0 - Cloudy 10 - - - -
04/12:30pm 16.5 E 12 17 1011.6 - 0.0 - Partly cloudy 10 - - - -
04/12:00pm 16.1 E 13 19 1012.2 - 0.0 - - 10 - - - -
04/11:30am 15.9 E 12 18 1012.6 - 0.0 - - 10 - - - -
04/11:00am 15.6 E 13 17 1012.6 - 0.0 - - 10 - - - -
04/10:30am 16.1 ESE 13 19 1012.9 - 0.0 - Partly cloudy 10 - - - -
04/10:00am 15.5 E 12 16 1013.3 - 0.0 - Partly cloudy 10 - - - -
04/09:30am 15.4 ESE 12 16 1013.0 - 0.0 - Partly cloudy 10 - - - -
04/09:00am 14.7 ESE 10 14 1013.5 - 0.0 - Mostly clear 10 - - - -
04/08:30am 14.0 ESE 10 14 1013.6 - 0.0 - - 10 - - - -
04/08:00am 13.2 ESE 8 14 1013.6 - 0.0 - - 10 - - - -
04/07:30am 9.8 W 2 3 1013.7 - 0.0 - - 10 - - - -
04/07:00am 7.7 WNW 4 5 1013.7 - 0.0 - - 10 - - - -
04/06:30am 6.0 WNW 5 6 1013.7 - 0.0 - - 10 - - - -
04/06:00am 4.6 W 6 6 1014.0 - 0.0 - - 10 - - - -
04/05:30am 4.3 WNW 5 6 1013.9 - 0.0 - - 10 - - - -
04/05:00am 4.4 WNW 6 7 1013.7 - 0.0 - - 10 - - - -
04/04:30am 4.3 WNW 6 6 1013.3 - 0.0 - - 10 - - - -
04/04:00am 4.2 WNW 5 6 1013.3 - 0.0 - - 10 - - - -
04/03:30am 3.6 W 5 7 1013.5 - 0.0 - - 10 - - - -
04/03:00am 4.1 WNW 5 5 1013.9 - 0.0 - - 10 - - - -
04/02:30am 5.1 WSW 4 5 1013.7 - 0.0 - - 10 - - - -
04/02:00am 4.8 WSW 4 5 1014.1 - 0.0 - - 10 - - - -
04/01:30am 5.7 WSW 6 6 1014.3 - 0.0 - - 10 - - - -
04/01:00am 6.2 WNW 5 6 1014.7 - 0.0 - - 10 - - - -
04/12:30am 7.4 WNW 5 7 1014.9 - 0.0 - - 10 - - - -
04/12:00am 8.0 WNW 6 8 1015.0 - 0.0 - - 10 - - - -
 
Date/Time
EDT
Temp
°C
Wind Pressure Rain since
9am
mm
Weather Cloud Vis
km
Sea
Height
m
Swell
Dir  Spd
kts
Gust
kts
hPa Trend Height
m
Period
s
Dir
03/11:30pm 8.4 W 4 5 1015.1 - 0.0 - - 10 - - - -

Other Formats:

Comma delimited format used in spreadsheet applications
http://www.bom.gov.au/fwo/IDV60701/IDV60701.95957.axf

JavaScript Object Notation format (JSON) in row-major order
http://www.bom.gov.au/fwo/IDV60701/IDV60701.95957.json